createdAt,value
2018-07-03T12:51:57.820Z,3.97
2018-07-03T12:54:25.745Z,3.67
2018-07-03T12:56:53.614Z,4.00
2018-07-03T12:59:21.504Z,3.30
2018-07-03T13:01:49.315Z,3.87
2018-07-03T13:04:17.149Z,3.70
2018-07-03T13:06:44.985Z,3.43
2018-07-03T13:09:18.507Z,3.60
2018-07-03T13:11:46.278Z,3.37
2018-07-03T13:14:13.989Z,3.43
2018-07-03T13:16:41.842Z,3.43
2018-07-03T13:19:20.464Z,3.63
2018-07-03T13:21:48.292Z,3.50
2018-07-03T13:24:16.026Z,3.03
2018-07-03T13:26:43.675Z,3.37
2018-07-03T13:29:11.516Z,3.50
2018-07-03T13:31:39.315Z,3.37
2018-07-03T13:34:07.214Z,3.50
2018-07-03T13:36:35.025Z,3.13
2018-07-03T13:39:05.281Z,2.70
2018-07-03T13:41:34.472Z,3.10
2018-07-03T13:44:04.575Z,3.60
2018-07-03T13:46:32.327Z,3.50
2018-07-03T13:49:00.167Z,3.07
2018-07-03T13:51:28.012Z,3.47
2018-07-03T13:54:03.336Z,3.13
2018-07-03T13:56:38.828Z,2.40
2018-07-03T13:59:06.530Z,3.27
2018-07-03T14:01:34.322Z,3.43
2018-07-03T14:04:02.142Z,3.43
2018-07-03T14:06:30.075Z,3.10
2018-07-03T14:08:57.828Z,3.00
2018-07-03T14:11:25.542Z,3.40
2018-07-03T14:13:53.396Z,2.70
2018-07-03T14:16:21.183Z,2.87
2018-07-03T14:18:49.034Z,2.43
2018-07-03T14:21:16.874Z,2.70
2018-07-03T14:23:48.471Z,3.00
2018-07-03T14:26:16.271Z,3.10
2018-07-03T14:28:43.906Z,2.80
2018-07-03T14:31:11.701Z,2.80
2018-07-03T14:33:39.459Z,2.60
2018-07-03T14:36:07.564Z,2.20
2018-07-03T14:38:35.321Z,2.60
2018-07-03T14:41:03.003Z,2.40
2018-07-03T14:43:30.724Z,2.87
2018-07-03T14:45:58.418Z,2.80
2018-07-03T14:51:23.254Z,2.43
2018-07-03T14:53:50.938Z,2.33
2018-07-03T14:56:18.682Z,2.40
2018-07-03T14:58:46.307Z,2.20
2018-07-03T15:01:17.677Z,2.37
2018-07-03T15:03:53.274Z,2.53
2018-07-03T15:06:21.033Z,2.40
2018-07-03T15:08:49.614Z,2.50
2018-07-03T15:11:17.509Z,2.60
2018-07-03T15:13:46.076Z,2.30
2018-07-03T15:16:13.891Z,2.77
2018-07-03T15:18:47.047Z,2.53
2018-07-03T15:21:14.842Z,2.57
2018-07-03T15:23:42.699Z,2.97
2018-07-03T15:26:10.376Z,2.87
2018-07-03T15:28:38.295Z,2.77
2018-07-03T15:31:06.122Z,2.67
2018-07-03T15:33:33.834Z,2.70
2018-07-03T15:36:02.360Z,2.80
2018-07-03T15:38:30.619Z,2.83
2018-07-03T15:40:59.182Z,2.70
2018-07-03T15:46:34.328Z,2.53
2018-07-03T15:49:02.791Z,2.73
2018-07-03T15:51:31.293Z,2.40
2018-07-03T15:54:00.051Z,2.53
2018-07-03T15:56:28.326Z,3.00
2018-07-03T16:01:55.257Z,3.43
2018-07-03T16:05:35.233Z,3.03
2018-07-03T16:08:58.484Z,2.50
2018-07-03T16:11:32.244Z,3.33
2018-07-03T16:14:00.617Z,3.00
2018-07-03T16:16:29.526Z,2.37
2018-07-03T16:19:03.653Z,2.10
2018-07-03T16:21:32.292Z,2.47
2018-07-03T16:24:03.845Z,2.70
2018-07-03T16:26:41.992Z,3.03
2018-07-03T16:29:11.436Z,3.30
2018-07-03T16:31:39.472Z,2.97
2018-07-03T16:34:07.537Z,2.57
2018-07-03T16:36:35.516Z,2.70
2018-07-03T16:39:06.136Z,2.20
2018-07-03T16:41:34.239Z,3.17
2018-07-03T16:44:02.247Z,2.60
2018-07-03T16:46:30.297Z,3.17
2018-07-03T16:48:58.264Z,2.83
2018-07-03T16:51:26.285Z,3.50
2018-07-03T16:53:54.286Z,3.13
2018-07-03T16:56:22.332Z,3.07
2018-07-03T16:58:50.542Z,3.37
2018-07-03T17:01:18.657Z,2.67
2018-07-03T17:03:46.672Z,2.80
2018-07-03T17:06:14.730Z,2.70
2018-07-03T17:08:42.742Z,2.67
2018-07-03T17:11:10.584Z,3.10
2018-07-03T17:13:38.501Z,2.70
2018-07-03T17:16:07.173Z,2.90
2018-07-03T17:18:35.204Z,3.00
2018-07-03T17:21:03.016Z,2.70
2018-07-03T17:23:30.752Z,2.60
2018-07-03T17:25:58.566Z,2.60
2018-07-03T17:28:26.584Z,2.50
2018-07-03T17:30:54.429Z,2.80
2018-07-03T17:33:22.241Z,2.67
2018-07-03T17:35:49.997Z,2.87
2018-07-03T17:38:17.729Z,2.97
2018-07-03T17:40:56.896Z,3.33
2018-07-03T17:43:34.743Z,3.00
2018-07-03T17:46:06.286Z,2.50
2018-07-03T17:48:34.015Z,2.20
2018-07-03T17:51:01.807Z,2.57
2018-07-03T17:53:29.733Z,2.30
2018-07-03T17:55:57.902Z,3.07
2018-07-03T17:58:25.665Z,2.70
2018-07-03T18:00:53.588Z,2.83
2018-07-03T18:03:21.484Z,2.57
2018-07-03T18:05:49.293Z,2.57
2018-07-03T18:08:17.253Z,2.80
2018-07-03T18:10:45.168Z,2.90
2018-07-03T18:13:13.004Z,2.70
2018-07-03T18:15:41.151Z,3.07
2018-07-03T18:18:08.942Z,3.03
2018-07-03T18:20:36.835Z,2.83
2018-07-03T18:23:04.728Z,3.63
2018-07-03T18:25:32.610Z,2.60
2018-07-03T18:28:00.516Z,3.00
2018-07-03T18:30:28.475Z,3.17
2018-07-03T18:32:56.376Z,2.90
2018-07-03T18:35:24.272Z,3.00
2018-07-03T18:37:52.328Z,3.10
2018-07-03T18:40:20.231Z,2.93
2018-07-03T18:45:45.555Z,2.67
2018-07-03T18:48:13.390Z,4.03
2018-07-03T18:50:41.346Z,2.97
2018-07-03T18:53:09.332Z,3.20
2018-07-03T18:55:37.304Z,2.97
2018-07-03T18:58:05.325Z,3.10
2018-07-03T19:00:33.244Z,3.33
2018-07-03T19:03:01.210Z,3.27
2018-07-03T19:05:29.083Z,3.53
2018-07-03T19:07:57.030Z,2.97
2018-07-03T19:10:24.897Z,3.50
2018-07-03T19:12:52.834Z,3.20
2018-07-03T19:15:27.086Z,6.30
2018-07-03T19:17:54.990Z,4.17
2018-07-03T19:20:41.111Z,4.27
2018-07-03T19:23:09.088Z,4.50
2018-07-03T19:25:37.922Z,4.70
2018-07-03T19:31:05.526Z,7.00
2018-07-03T19:33:33.334Z,6.00
2018-07-03T19:36:01.309Z,4.30
2018-07-03T19:38:29.331Z,2.80
2018-07-03T19:41:10.318Z,3.93
2018-07-03T19:43:38.294Z,4.10
2018-07-03T19:46:06.342Z,3.70
2018-07-03T19:48:34.239Z,4.80
2018-07-03T19:54:08.891Z,4.30
2018-07-03T19:56:37.549Z,4.20
2018-07-03T19:59:06.231Z,4.30
2018-07-03T20:01:38.572Z,4.97
2018-07-03T20:04:06.524Z,5.23
2018-07-03T20:06:34.405Z,4.43
2018-07-03T20:09:02.418Z,4.23
2018-07-03T20:11:34.123Z,3.77
2018-07-03T20:14:02.269Z,4.70
2018-07-03T20:16:30.538Z,3.90
2018-07-03T20:18:58.834Z,3.43
2018-07-03T20:21:27.057Z,3.43
2018-07-03T20:23:55.201Z,3.50
2018-07-03T20:26:23.321Z,3.20
